Dati Storici

Data ora Umidita' aria (%) Temperatura aria (°C) Rad globale (W/m²) Gonioanemometro (°) Tacoanemometro (m/s) Pioggia (mm)
09-11-2012 20:30 83.7 % 9.029 3.038 32.97 0.675 0
09-11-2012 20:20 82.3 % 9.073 2.778 31.075 0.196 0
09-11-2012 20:10 82.3 % 9.224 2.816 4.823 0.001 0
09-11-2012 19:50 82.7 % 9.508 2.715 267.491 0.333 0
09-11-2012 19:40 83 % 9.348 2.562 247.427 0.167 0
09-11-2012 19:30 81.9 % 9.143 2.203 208.271 0.251 0
09-11-2012 19:20 81.4 % 9.215 2.229 26.325 0.538 0
09-11-2012 19:10 81 % 9.515 1.933 252.457 -0.008 0
09-11-2012 19:00 80.1 % 9.544 1.471 256.308 0.327 0
09-11-2012 18:50 79.7 % 9.855 1.587 235.351 0.401 0
09-11-2012 18:40 79.4 % 9.849 1.357 221.563 0.535 0
09-11-2012 18:30 77.7 % 10.071 1.048 236.73 -0.008 0
09-11-2012 18:20 77.6 % 10.472 1.536 258.688 0.595 0
09-11-2012 18:00 77.2 % 10.699 10.702 2.271 230.912 1
09-11-2012 17:50 76.4 % 10.836 10.893 3.669 213.014 0
09-11-2012 17:40 75.6 % 10.806 10.815 9.493 221.818 0
09-11-2012 17:30 74.3 % 11.08 19.282 160.201 -0.011 0
09-11-2012 17:20 73.3 % 11.316 34.729 147.821 0.298 0
09-11-2012 17:10 71.5 % 11.51 36.61 79.927 0.541 0
09-11-2012 17:00 70.2 % 11.691 37.072 104.65 0.552 0

I dati sono presentati in modo automatico a scopo informativo. In seguito a verifica i dati possono subire modifiche o essere invalidati e non riportati negli archivi definitivi.